createdAt,value
2018-02-02T00:00:47.282Z,0.00
2018-02-02T00:01:47.197Z,0.00
2018-02-02T00:02:47.115Z,0.00
2018-02-02T00:03:47.031Z,0.00
2018-02-02T00:04:46.949Z,0.00
2018-02-02T00:05:46.867Z,0.00
2018-02-02T00:06:46.780Z,0.00
2018-02-02T00:07:46.698Z,0.00
2018-02-02T00:08:46.615Z,0.00
2018-02-02T00:09:46.533Z,0.00
2018-02-02T00:10:46.447Z,0.00
2018-02-02T00:11:46.364Z,0.00
2018-02-02T00:12:46.279Z,0.00
2018-02-02T00:13:46.195Z,0.00
2018-02-02T00:14:46.113Z,0.00
2018-02-02T00:15:46.030Z,0.00
2018-02-02T00:16:45.990Z,0.00
2018-02-02T00:17:45.866Z,0.00
2018-02-02T00:18:45.779Z,0.00
2018-02-02T00:19:45.696Z,0.00
2018-02-02T00:20:45.618Z,0.00
2018-02-02T00:21:45.528Z,0.00
2018-02-02T00:22:45.444Z,0.00
2018-02-02T00:23:45.361Z,0.00
2018-02-02T00:24:45.278Z,0.00
2018-02-02T00:25:45.195Z,0.00
2018-02-02T00:26:45.111Z,0.00
2018-02-02T00:27:45.027Z,0.00
2018-02-02T00:28:44.945Z,0.00
2018-02-02T00:29:44.861Z,0.00
2018-02-02T00:30:44.777Z,0.00
2018-02-02T00:31:44.695Z,0.00
2018-02-02T00:32:44.612Z,0.00
2018-02-02T00:33:44.527Z,0.00
2018-02-02T00:34:44.448Z,0.00
2018-02-02T00:35:44.361Z,0.00
2018-02-02T00:36:44.278Z,0.00
2018-02-02T00:37:44.192Z,0.00
2018-02-02T00:38:44.109Z,0.00
2018-02-02T00:39:44.026Z,0.00
2018-02-02T00:40:43.944Z,0.00
2018-02-02T00:41:43.861Z,0.00
2018-02-02T00:42:43.777Z,0.00
2018-02-02T00:43:43.692Z,0.00
2018-02-02T00:44:43.760Z,0.00
2018-02-02T00:45:43.525Z,0.00
2018-02-02T00:46:43.443Z,0.00
2018-02-02T00:47:43.360Z,0.00
2018-02-02T00:48:43.275Z,0.00
2018-02-02T00:49:43.193Z,0.00
2018-02-02T00:50:43.113Z,0.00
2018-02-02T00:51:43.025Z,0.00
2018-02-02T00:52:42.942Z,0.00
2018-02-02T00:53:42.865Z,0.00
2018-02-02T00:54:42.775Z,0.00
2018-02-02T00:55:42.691Z,0.00
2018-02-02T00:56:42.607Z,0.00
2018-02-02T00:57:42.524Z,0.00
2018-02-02T00:58:42.441Z,0.00
2018-02-02T00:59:42.357Z,0.00
2018-02-02T01:00:42.274Z,0.00
2018-02-02T01:01:42.189Z,0.00
2018-02-02T01:02:42.107Z,0.00
2018-02-02T01:03:42.024Z,0.00
2018-02-02T01:04:41.939Z,0.00
2018-02-02T01:05:41.855Z,0.00
2018-02-02T01:06:41.772Z,0.00
2018-02-02T01:07:41.689Z,0.00
2018-02-02T01:08:41.607Z,0.00
2018-02-02T01:09:41.520Z,0.00
2018-02-02T01:10:41.437Z,0.00
2018-02-02T01:11:41.354Z,0.00
2018-02-02T01:12:41.270Z,0.00
2018-02-02T01:13:41.186Z,0.00
2018-02-02T01:14:41.102Z,0.00
2018-02-02T01:15:41.022Z,0.00
2018-02-02T01:16:40.934Z,0.00
2018-02-02T01:17:40.850Z,0.00
2018-02-02T01:18:40.767Z,0.00
2018-02-02T01:19:40.683Z,0.00
2018-02-02T01:20:40.600Z,0.00
2018-02-02T01:21:40.516Z,0.00
2018-02-02T01:22:40.432Z,0.00
2018-02-02T01:23:40.348Z,0.00
2018-02-02T01:24:40.268Z,0.00
2018-02-02T01:25:40.179Z,0.00
2018-02-02T01:26:40.096Z,0.00
2018-02-02T01:27:40.013Z,0.00
2018-02-02T01:28:39.930Z,0.00
2018-02-02T01:29:39.844Z,0.00
2018-02-02T01:30:39.762Z,0.00
2018-02-02T01:31:39.678Z,0.00
2018-02-02T01:32:39.594Z,0.00
2018-02-02T01:33:39.508Z,0.00
2018-02-02T01:34:39.425Z,0.00
2018-02-02T01:35:39.342Z,0.00
2018-02-02T01:36:39.257Z,0.00
2018-02-02T01:37:39.174Z,0.00
2018-02-02T01:38:39.089Z,0.00
2018-02-02T01:39:39.005Z,0.00
2018-02-02T01:40:38.922Z,0.00
2018-02-02T01:41:38.837Z,0.00
2018-02-02T01:42:38.754Z,0.00
2018-02-02T01:43:38.668Z,0.00
2018-02-02T01:44:38.586Z,0.00
2018-02-02T01:45:38.500Z,0.00
2018-02-02T01:46:38.417Z,0.00
2018-02-02T01:47:38.332Z,0.00
2018-02-02T01:48:38.249Z,0.00
2018-02-02T01:49:38.164Z,0.00
2018-02-02T01:50:38.080Z,0.00
2018-02-02T01:51:37.996Z,0.00
2018-02-02T01:52:37.913Z,0.00
2018-02-02T01:53:37.828Z,0.00
2018-02-02T01:54:37.744Z,0.00
2018-02-02T01:55:37.660Z,0.00
2018-02-02T01:56:37.576Z,0.00
2018-02-02T01:57:37.491Z,0.00
2018-02-02T01:58:37.407Z,0.00
2018-02-02T01:59:37.322Z,0.00
2018-02-02T02:00:37.242Z,0.00
2018-02-02T02:01:37.154Z,0.00
2018-02-02T02:02:37.071Z,0.00
2018-02-02T02:03:36.987Z,0.00
2018-02-02T02:04:36.902Z,0.00
2018-02-02T02:05:36.818Z,0.00
2018-02-02T02:06:36.736Z,0.00
2018-02-02T02:07:36.650Z,0.00
2018-02-02T02:08:36.567Z,0.00
2018-02-02T02:09:36.483Z,0.00
2018-02-02T02:10:36.399Z,0.00
2018-02-02T02:11:36.315Z,0.00
2018-02-02T02:12:36.231Z,0.00
2018-02-02T02:13:36.146Z,0.00
2018-02-02T02:14:36.062Z,0.00
2018-02-02T02:15:35.979Z,0.00
2018-02-02T02:16:35.893Z,0.00
2018-02-02T02:17:35.809Z,0.00
2018-02-02T02:18:35.726Z,0.00
2018-02-02T02:19:35.643Z,0.00
2018-02-02T02:20:35.556Z,0.00
2018-02-02T02:21:35.473Z,0.00
2018-02-02T02:22:35.541Z,0.00
2018-02-02T02:23:35.304Z,0.00
2018-02-02T02:24:35.220Z,0.00
2018-02-02T02:25:35.135Z,0.00
2018-02-02T02:26:35.052Z,0.00
2018-02-02T02:27:34.967Z,0.00
2018-02-02T02:28:34.883Z,0.00
2018-02-02T02:29:34.804Z,0.00
2018-02-02T02:30:34.714Z,0.00
2018-02-02T02:31:34.630Z,0.00
2018-02-02T02:32:34.547Z,0.00
2018-02-02T02:33:34.462Z,0.00
2018-02-02T02:34:34.377Z,0.00
2018-02-02T02:35:34.293Z,0.00
2018-02-02T02:36:34.210Z,0.00
2018-02-02T02:37:34.124Z,0.00
2018-02-02T02:38:34.040Z,0.00
2018-02-02T02:39:33.955Z,0.00
2018-02-02T02:40:33.872Z,0.00
2018-02-02T02:41:33.786Z,0.00
2018-02-02T02:42:33.703Z,0.00
2018-02-02T02:43:33.619Z,0.00
2018-02-02T02:44:33.534Z,0.00
2018-02-02T02:45:33.450Z,0.00
2018-02-02T02:46:33.365Z,0.00
2018-02-02T02:47:33.281Z,0.00
2018-02-02T02:48:33.197Z,0.00
2018-02-02T02:49:33.112Z,0.00
2018-02-02T02:50:33.034Z,0.00
2018-02-02T02:51:32.944Z,0.00
2018-02-02T02:52:32.859Z,0.00
2018-02-02T02:53:32.774Z,0.00
2018-02-02T02:54:32.690Z,0.00
2018-02-02T02:55:32.606Z,0.00
2018-02-02T02:56:32.522Z,0.00
2018-02-02T02:57:32.437Z,0.00
2018-02-02T02:58:32.352Z,0.00
2018-02-02T02:59:32.268Z,0.00
2018-02-02T03:00:32.184Z,0.00
2018-02-02T03:01:32.098Z,0.00
2018-02-02T03:02:32.018Z,0.00
2018-02-02T03:03:31.930Z,0.00
2018-02-02T03:04:31.845Z,0.00
2018-02-02T03:05:31.760Z,0.00
2018-02-02T03:06:31.676Z,0.00
2018-02-02T03:07:31.592Z,0.00
2018-02-02T03:08:31.509Z,0.00
2018-02-02T03:09:31.425Z,0.00
2018-02-02T03:10:31.338Z,0.00
2018-02-02T03:11:31.255Z,0.00
2018-02-02T03:12:31.171Z,0.00
2018-02-02T03:13:31.086Z,0.00
2018-02-02T03:14:31.002Z,0.00
2018-02-02T03:15:30.919Z,0.00
2018-02-02T03:16:30.833Z,0.00
2018-02-02T03:17:30.748Z,0.00
2018-02-02T03:18:30.720Z,0.00
2018-02-02T03:19:30.579Z,0.00
2018-02-02T03:20:30.502Z,0.00
2018-02-02T03:21:30.410Z,0.00
2018-02-02T03:22:30.327Z,0.00
2018-02-02T03:23:30.243Z,0.00
2018-02-02T03:24:30.159Z,0.00
2018-02-02T03:25:30.074Z,0.00
2018-02-02T03:26:29.990Z,0.00
2018-02-02T03:27:29.906Z,0.00
2018-02-02T03:28:29.822Z,0.00
2018-02-02T03:29:29.736Z,0.00
2018-02-02T03:30:29.658Z,0.00
2018-02-02T03:31:29.570Z,0.00
2018-02-02T03:32:29.485Z,0.00
2018-02-02T03:33:29.400Z,0.00
2018-02-02T03:34:29.315Z,0.00
2018-02-02T03:35:29.232Z,0.00
2018-02-02T03:36:29.149Z,0.00
2018-02-02T03:37:29.065Z,0.00
2018-02-02T03:38:28.981Z,0.00
2018-02-02T03:39:28.897Z,0.00
2018-02-02T03:40:28.814Z,0.00
2018-02-02T03:41:28.729Z,0.00
2018-02-02T03:42:28.645Z,0.00
2018-02-02T03:43:28.561Z,0.00
2018-02-02T03:44:28.477Z,0.00
2018-02-02T03:45:28.393Z,0.00
2018-02-02T03:46:28.311Z,0.00
2018-02-02T03:47:28.226Z,0.00
2018-02-02T03:48:28.142Z,0.00
2018-02-02T03:49:28.056Z,0.00
2018-02-02T03:50:27.973Z,0.00
2018-02-02T03:51:27.889Z,0.00
2018-02-02T03:52:27.807Z,0.00
2018-02-02T03:53:27.721Z,0.00
2018-02-02T03:54:27.787Z,0.00
2018-02-02T03:55:27.554Z,0.00
2018-02-02T03:56:27.469Z,0.00
2018-02-02T03:57:27.385Z,0.00
2018-02-02T03:58:27.301Z,0.00
2018-02-02T03:59:27.216Z,0.00
2018-02-02T04:00:27.133Z,0.00
2018-02-02T04:01:27.048Z,0.00
2018-02-02T04:02:26.964Z,0.00
2018-02-02T04:03:26.880Z,0.00
2018-02-02T04:04:26.797Z,0.00
2018-02-02T04:05:26.712Z,0.00
2018-02-02T04:06:26.627Z,0.00
2018-02-02T04:07:26.549Z,0.00
2018-02-02T04:08:26.461Z,0.00
2018-02-02T04:09:26.375Z,0.00
2018-02-02T04:10:26.291Z,0.00
2018-02-02T04:11:26.207Z,0.00
2018-02-02T04:12:26.123Z,0.00
2018-02-02T04:13:26.038Z,0.00
2018-02-02T04:14:25.954Z,0.00
2018-02-02T04:15:25.870Z,0.00
2018-02-02T04:16:25.792Z,0.00
2018-02-02T04:17:25.701Z,0.00
2018-02-02T04:18:25.617Z,0.00
2018-02-02T04:19:25.532Z,0.00
2018-02-02T04:20:25.449Z,0.00
2018-02-02T04:21:25.364Z,0.00
2018-02-02T04:22:25.280Z,0.00
2018-02-02T04:23:25.198Z,0.00
2018-02-02T04:24:25.114Z,0.00
2018-02-02T04:25:25.026Z,0.00
2018-02-02T04:26:24.943Z,0.00
2018-02-02T04:27:24.859Z,0.00
2018-02-02T04:28:24.775Z,0.00
2018-02-02T04:29:24.690Z,0.00
2018-02-02T04:30:24.606Z,0.00
2018-02-02T04:31:24.522Z,0.00
2018-02-02T04:32:24.437Z,0.00
2018-02-02T04:33:24.353Z,0.00
2018-02-02T04:34:24.268Z,0.00
2018-02-02T04:35:24.184Z,0.00
2018-02-02T04:36:24.101Z,0.00
2018-02-02T04:37:24.016Z,0.00
2018-02-02T04:38:23.932Z,0.00
2018-02-02T04:39:23.847Z,0.00
2018-02-02T04:40:23.763Z,0.00
2018-02-02T04:41:23.678Z,0.00
2018-02-02T04:42:23.593Z,0.00
2018-02-02T04:43:23.509Z,0.00
2018-02-02T04:44:23.425Z,0.00
2018-02-02T04:45:23.340Z,0.00
2018-02-02T04:46:23.257Z,0.00
2018-02-02T04:47:23.171Z,0.00
2018-02-02T04:48:23.088Z,0.00
2018-02-02T04:49:23.002Z,0.00
2018-02-02T04:50:22.919Z,0.00
2018-02-02T04:51:22.836Z,0.00
2018-02-02T04:52:22.750Z,0.00
2018-02-02T04:53:22.664Z,0.00
2018-02-02T04:54:22.581Z,0.00
2018-02-02T04:55:22.497Z,0.00
2018-02-02T04:56:22.413Z,0.00
2018-02-02T04:57:22.327Z,0.00
2018-02-02T04:58:22.243Z,0.00
2018-02-02T04:59:22.160Z,0.00
2018-02-02T05:00:22.081Z,0.00
2018-02-02T05:01:21.990Z,0.00
2018-02-02T05:02:21.906Z,0.00
2018-02-02T05:03:21.822Z,0.00
2018-02-02T05:04:21.737Z,0.00
2018-02-02T05:05:21.653Z,0.00
2018-02-02T05:06:21.567Z,0.00
2018-02-02T05:07:21.484Z,0.00
2018-02-02T05:08:21.400Z,0.00
2018-02-02T05:09:21.314Z,0.00
2018-02-02T05:10:21.231Z,0.00
2018-02-02T05:11:21.146Z,0.00
2018-02-02T05:12:21.063Z,0.00
2018-02-02T05:13:20.977Z,0.00
2018-02-02T05:14:20.892Z,0.00
2018-02-02T05:15:20.809Z,0.00
2018-02-02T05:16:20.724Z,0.00
2018-02-02T05:17:20.639Z,0.00
2018-02-02T05:18:20.555Z,0.00
2018-02-02T05:19:20.472Z,0.00
2018-02-02T05:20:20.387Z,0.00
2018-02-02T05:21:20.302Z,0.00
2018-02-02T05:22:20.218Z,0.00
2018-02-02T05:23:20.134Z,0.00
2018-02-02T05:24:20.049Z,0.00
2018-02-02T05:25:19.964Z,0.00
2018-02-02T05:26:19.880Z,0.00
2018-02-02T05:27:19.796Z,0.00
2018-02-02T05:28:19.712Z,0.00
2018-02-02T05:29:19.627Z,0.00
2018-02-02T05:30:19.542Z,0.00
2018-02-02T05:31:19.459Z,0.00
2018-02-02T05:32:19.375Z,0.00
2018-02-02T05:33:19.289Z,0.00
2018-02-02T05:34:19.205Z,0.00
2018-02-02T05:35:19.122Z,0.00
2018-02-02T05:36:19.037Z,0.00
2018-02-02T05:37:18.952Z,0.00
2018-02-02T05:38:18.867Z,0.00
2018-02-02T05:39:18.784Z,0.00
2018-02-02T05:40:18.700Z,0.00
2018-02-02T05:41:18.615Z,0.00
2018-02-02T05:42:18.531Z,0.00
2018-02-02T05:43:18.447Z,0.00
2018-02-02T05:44:18.363Z,0.00
2018-02-02T05:45:18.279Z,0.00
2018-02-02T05:46:18.194Z,0.00
2018-02-02T05:47:18.113Z,0.00
2018-02-02T05:48:18.026Z,0.00
2018-02-02T05:49:17.941Z,0.00
2018-02-02T05:50:17.857Z,0.00
2018-02-02T05:51:17.773Z,0.00
2018-02-02T05:52:17.689Z,0.00
2018-02-02T05:53:17.604Z,0.00
2018-02-02T05:54:17.520Z,0.00
2018-02-02T05:55:17.437Z,0.00
2018-02-02T05:56:17.352Z,0.00
2018-02-02T05:57:17.268Z,0.00
2018-02-02T05:58:17.183Z,0.00
2018-02-02T05:59:17.100Z,0.00
2018-02-02T06:00:17.017Z,0.00
2018-02-02T06:01:16.930Z,0.00
2018-02-02T06:02:16.847Z,0.00
2018-02-02T06:03:16.763Z,0.00
2018-02-02T06:04:16.680Z,0.00
2018-02-02T06:05:16.595Z,0.00
2018-02-02T06:06:16.511Z,0.00
2018-02-02T06:07:16.426Z,0.00
2018-02-02T06:08:16.397Z,0.00
2018-02-02T06:09:16.258Z,0.00
2018-02-02T06:10:16.175Z,0.00
2018-02-02T06:11:16.090Z,0.00
2018-02-02T06:12:16.007Z,0.00
2018-02-02T06:13:15.921Z,0.00
2018-02-02T06:14:15.838Z,0.00
2018-02-02T06:15:15.755Z,0.00
2018-02-02T06:16:15.671Z,0.00
2018-02-02T06:17:15.586Z,0.00
2018-02-02T06:18:15.502Z,0.00
2018-02-02T06:19:15.425Z,0.00
2018-02-02T06:20:15.334Z,0.00
2018-02-02T06:21:15.250Z,0.00
2018-02-02T06:22:15.166Z,0.00
2018-02-02T06:23:15.082Z,0.00
2018-02-02T06:24:14.998Z,0.00
2018-02-02T06:25:14.936Z,0.00
2018-02-02T06:26:14.829Z,0.00
2018-02-02T06:27:14.746Z,0.00
2018-02-02T06:28:14.668Z,0.00
2018-02-02T06:29:14.577Z,0.00
2018-02-02T06:30:14.492Z,4.00
2018-02-02T06:31:14.410Z,4.00
2018-02-02T06:32:14.326Z,0.00
2018-02-02T06:33:14.241Z,4.00
2018-02-02T06:34:14.157Z,4.00
2018-02-02T06:35:14.074Z,8.00
2018-02-02T06:36:13.993Z,4.00
2018-02-02T06:37:13.905Z,8.00
2018-02-02T06:38:13.822Z,4.00
2018-02-02T06:39:13.738Z,8.00
2018-02-02T06:40:13.654Z,8.00
2018-02-02T06:41:13.569Z,8.00
2018-02-02T06:42:13.484Z,12.00
2018-02-02T06:43:13.402Z,12.00
2018-02-02T06:44:13.319Z,16.00
2018-02-02T06:45:13.234Z,20.00
2018-02-02T06:46:13.150Z,20.00
2018-02-02T06:47:13.066Z,24.00
2018-02-02T06:48:12.988Z,28.00
2018-02-02T06:49:12.900Z,28.00
2018-02-02T06:50:12.814Z,32.00
2018-02-02T06:51:12.729Z,40.00
2018-02-02T06:52:12.647Z,44.00
2018-02-02T06:53:12.562Z,48.00
2018-02-02T06:54:12.478Z,52.00
2018-02-02T06:55:12.394Z,60.00
2018-02-02T06:56:12.310Z,64.00
2018-02-02T06:57:12.226Z,68.00
2018-02-02T06:58:12.141Z,68.00
2018-02-02T06:59:12.058Z,84.00
2018-02-02T07:00:11.975Z,92.00
2018-02-02T07:01:11.893Z,100.00
2018-02-02T07:02:11.807Z,116.00
2018-02-02T07:03:11.727Z,124.00
2018-02-02T07:04:11.641Z,128.00
2018-02-02T07:05:11.554Z,144.00
2018-02-02T07:06:11.470Z,160.00
2018-02-02T07:07:11.388Z,180.00
2018-02-02T07:08:11.304Z,200.00
2018-02-02T07:09:11.220Z,216.00
2018-02-02T07:10:11.136Z,224.00
2018-02-02T07:11:11.056Z,236.00
2018-02-02T07:12:10.969Z,252.00
2018-02-02T07:13:10.885Z,272.00
2018-02-02T07:14:10.802Z,292.00
2018-02-02T07:15:10.719Z,300.00
2018-02-02T07:16:10.635Z,300.00
2018-02-02T07:17:10.551Z,324.00
2018-02-02T07:18:10.467Z,328.00
2018-02-02T07:19:10.384Z,336.00
2018-02-02T07:20:10.301Z,352.00
2018-02-02T07:21:10.217Z,376.00
2018-02-02T07:22:10.133Z,416.00
2018-02-02T07:23:10.050Z,432.00
2018-02-02T07:24:09.965Z,444.00
2018-02-02T07:25:09.882Z,468.00
2018-02-02T07:26:09.799Z,500.00
2018-02-02T07:27:09.716Z,540.00
2018-02-02T07:28:09.632Z,568.00
2018-02-02T07:29:09.547Z,596.00
2018-02-02T07:30:09.465Z,640.00
2018-02-02T07:31:09.382Z,676.00
2018-02-02T07:32:09.299Z,724.00
2018-02-02T07:33:09.214Z,788.00
2018-02-02T07:34:09.131Z,904.00
2018-02-02T07:35:09.093Z,1012.00
2018-02-02T07:36:08.964Z,1024.00
2018-02-02T07:37:08.881Z,1084.00
2018-02-02T07:38:08.797Z,1132.00
2018-02-02T07:39:08.714Z,1008.00
2018-02-02T07:40:08.631Z,892.00
2018-02-02T07:41:08.582Z,848.00
2018-02-02T07:42:08.463Z,884.00
2018-02-02T07:43:08.380Z,896.00
2018-02-02T07:44:08.297Z,948.00
2018-02-02T07:45:08.214Z,960.00
2018-02-02T07:46:08.129Z,988.00
2018-02-02T07:47:08.046Z,952.00
2018-02-02T07:48:07.963Z,1044.00
2018-02-02T07:49:07.878Z,1196.00
2018-02-02T07:50:07.796Z,1232.00
2018-02-02T07:51:07.712Z,1208.00
2018-02-02T07:52:07.929Z,1172.00
2018-02-02T07:53:07.545Z,1228.00
2018-02-02T07:54:07.461Z,1296.00
2018-02-02T07:55:07.378Z,1392.00
2018-02-02T07:56:07.295Z,1448.00
2018-02-02T07:57:07.211Z,1456.00
2018-02-02T07:58:07.126Z,1592.00
2018-02-02T07:59:07.044Z,1604.00
2018-02-02T08:00:06.961Z,1712.00
2018-02-02T08:01:06.878Z,1788.00
2018-02-02T08:02:06.793Z,1740.00
2018-02-02T08:03:06.710Z,1848.00
2018-02-02T08:04:06.628Z,1632.00
2018-02-02T08:05:06.544Z,1304.00
2018-02-02T08:06:06.462Z,1056.00
2018-02-02T08:07:06.376Z,1148.00
2018-02-02T08:08:06.294Z,1096.00
2018-02-02T08:09:06.210Z,1324.00
2018-02-02T08:10:06.128Z,1044.00
2018-02-02T08:11:06.045Z,1308.00
2018-02-02T08:12:05.961Z,1284.00
2018-02-02T08:13:05.878Z,1316.00
2018-02-02T08:14:05.795Z,1104.00
2018-02-02T08:15:05.714Z,1044.00
2018-02-02T08:16:05.629Z,1048.00
2018-02-02T08:17:05.545Z,960.00
2018-02-02T08:18:05.462Z,1016.00
2018-02-02T08:19:05.379Z,1032.00
2018-02-02T08:20:05.297Z,1080.00
2018-02-02T08:21:05.211Z,1064.00
2018-02-02T08:22:05.130Z,1016.00
2018-02-02T08:23:05.046Z,892.00
2018-02-02T08:24:04.962Z,852.00
2018-02-02T08:25:04.879Z,764.00
2018-02-02T08:26:04.796Z,868.00
2018-02-02T08:27:04.712Z,1020.00
2018-02-02T08:28:04.930Z,1168.00
2018-02-02T08:29:04.545Z,1216.00
2018-02-02T08:30:04.461Z,1580.00
2018-02-02T08:31:04.381Z,1572.00
2018-02-02T08:32:04.297Z,1460.00
2018-02-02T08:33:04.213Z,1372.00
2018-02-02T08:34:04.130Z,1012.00
2018-02-02T08:35:04.047Z,832.00
2018-02-02T08:36:03.970Z,772.00
2018-02-02T08:37:03.880Z,700.00
2018-02-02T08:38:03.798Z,580.00
2018-02-02T08:39:03.715Z,632.00
2018-02-02T08:40:03.631Z,608.00
2018-02-02T08:41:03.549Z,600.00
2018-02-02T08:42:03.466Z,672.00
2018-02-02T08:43:03.383Z,732.00
2018-02-02T08:44:03.301Z,636.00
2018-02-02T08:45:03.216Z,708.00
2018-02-02T08:46:03.133Z,568.00
2018-02-02T08:47:03.051Z,500.00
2018-02-02T08:48:03.016Z,568.00
2018-02-02T08:49:02.884Z,684.00
2018-02-02T08:50:02.803Z,708.00
2018-02-02T08:51:02.726Z,652.00
2018-02-02T08:52:02.637Z,696.00
2018-02-02T08:53:02.552Z,732.00
2018-02-02T08:54:02.470Z,744.00
2018-02-02T08:55:02.387Z,672.00
2018-02-02T08:56:02.304Z,784.00
2018-02-02T08:57:02.221Z,692.00
2018-02-02T08:58:02.138Z,564.00
2018-02-02T08:59:02.055Z,612.00
2018-02-02T09:00:01.973Z,572.00
2018-02-02T09:01:01.890Z,568.00
2018-02-02T09:02:01.807Z,632.00
2018-02-02T09:03:01.743Z,576.00
2018-02-02T09:04:01.792Z,804.00
2018-02-02T09:05:01.558Z,864.00
2018-02-02T09:06:01.476Z,848.00
2018-02-02T09:07:01.392Z,940.00
2018-02-02T09:08:01.310Z,824.00
2018-02-02T09:09:01.226Z,928.00
2018-02-02T09:10:01.144Z,840.00
2018-02-02T09:11:01.060Z,1060.00
2018-02-02T09:12:00.979Z,1040.00
2018-02-02T09:13:00.894Z,936.00
2018-02-02T09:14:00.812Z,832.00
2018-02-02T09:15:00.729Z,948.00
2018-02-02T09:16:00.647Z,784.00
2018-02-02T09:17:00.563Z,748.00
2018-02-02T09:18:00.480Z,856.00
2018-02-02T09:19:00.398Z,736.00
2018-02-02T09:20:00.315Z,796.00
2018-02-02T09:21:00.232Z,720.00
2018-02-02T09:22:00.148Z,884.00
2018-02-02T09:23:00.067Z,944.00
2018-02-02T09:23:59.983Z,1016.00
2018-02-02T09:24:59.901Z,1144.00
2018-02-02T09:25:59.820Z,896.00
2018-02-02T09:26:59.735Z,816.00
2018-02-02T09:27:59.652Z,696.00
2018-02-02T09:28:59.568Z,708.00
2018-02-02T09:29:59.486Z,736.00
2018-02-02T09:30:59.404Z,840.00
2018-02-02T09:31:59.321Z,924.00
2018-02-02T09:32:59.237Z,992.00
2018-02-02T09:33:59.155Z,972.00
2018-02-02T09:34:59.073Z,936.00
2018-02-02T09:35:58.990Z,900.00
2018-02-02T09:36:58.907Z,744.00
2018-02-02T09:37:58.825Z,844.00
2018-02-02T09:38:58.742Z,1004.00
2018-02-02T09:39:58.810Z,904.00
2018-02-02T09:40:58.576Z,820.00
2018-02-02T09:41:58.497Z,932.00
2018-02-02T09:42:58.411Z,828.00
2018-02-02T09:43:58.329Z,780.00
2018-02-02T09:44:58.245Z,968.00
2018-02-02T09:45:58.163Z,936.00
2018-02-02T09:46:58.080Z,956.00
2018-02-02T09:47:57.998Z,1068.00
2018-02-02T09:48:57.928Z,1196.00
2018-02-02T09:49:57.832Z,1472.00
2018-02-02T09:50:57.751Z,1092.00
2018-02-02T09:51:57.667Z,1192.00
2018-02-02T09:52:57.583Z,1024.00
2018-02-02T09:53:57.500Z,928.00
2018-02-02T09:54:57.418Z,1140.00
2018-02-02T09:55:57.336Z,956.00
2018-02-02T09:56:57.252Z,1180.00
2018-02-02T09:57:57.174Z,1064.00
2018-02-02T09:58:57.089Z,1148.00
2018-02-02T09:59:57.005Z,872.00
2018-02-02T10:00:56.956Z,1072.00
2018-02-02T10:01:56.838Z,1148.00
2018-02-02T10:02:56.756Z,1288.00
2018-02-02T10:03:56.672Z,1376.00
2018-02-02T10:04:56.589Z,1788.00
2018-02-02T10:05:56.507Z,1828.00
2018-02-02T10:06:56.424Z,1700.00
2018-02-02T10:07:56.342Z,1836.00
2018-02-02T10:08:56.258Z,2104.00
2018-02-02T10:09:56.176Z,2076.00
2018-02-02T10:10:56.093Z,1740.00
2018-02-02T10:11:56.011Z,2108.00
2018-02-02T10:12:55.931Z,2104.00
2018-02-02T10:13:55.844Z,1564.00
2018-02-02T10:14:55.764Z,1284.00
2018-02-02T10:15:55.679Z,1564.00
2018-02-02T10:16:55.596Z,1784.00
2018-02-02T10:17:55.514Z,1600.00
2018-02-02T10:18:55.432Z,1712.00
2018-02-02T10:19:55.349Z,1724.00
2018-02-02T10:20:55.265Z,1872.00
2018-02-02T10:21:55.183Z,1628.00
2018-02-02T10:22:55.102Z,1792.00
2018-02-02T10:23:55.019Z,2948.00
2018-02-02T10:24:54.935Z,3716.00
2018-02-02T10:25:54.853Z,3176.00
2018-02-02T10:26:54.771Z,3520.00
2018-02-02T10:27:54.688Z,2964.00
2018-02-02T10:28:54.605Z,3828.00
2018-02-02T10:29:54.522Z,3508.00
2018-02-02T10:30:54.440Z,3220.00
2018-02-02T10:31:54.358Z,3284.00
2018-02-02T10:32:54.280Z,5148.00
2018-02-02T10:33:54.193Z,4784.00
2018-02-02T10:34:54.111Z,5628.00
2018-02-02T10:35:54.028Z,6548.00
2018-02-02T10:36:53.947Z,6796.00
2018-02-02T10:37:53.863Z,7064.00
2018-02-02T10:38:53.781Z,6288.00
2018-02-02T10:39:53.699Z,4372.00
2018-02-02T10:40:53.616Z,4096.00
2018-02-02T10:41:53.535Z,3168.00
2018-02-02T10:42:53.452Z,2872.00
2018-02-02T10:43:53.371Z,5276.00
2018-02-02T10:44:53.288Z,5308.00
2018-02-02T10:45:53.205Z,3408.00
2018-02-02T10:46:53.124Z,3476.00
2018-02-02T10:47:53.042Z,5316.00
2018-02-02T10:48:52.960Z,5436.00
2018-02-02T10:49:52.877Z,5528.00
2018-02-02T10:50:52.796Z,4144.00
2018-02-02T10:51:52.714Z,3632.00
2018-02-02T11:06:54.890Z,1556.00
2018-02-02T11:07:54.807Z,1852.00
2018-02-02T11:08:54.725Z,1828.00
2018-02-02T11:09:54.642Z,1408.00
2018-02-02T11:10:54.560Z,1356.00
2018-02-02T11:11:54.480Z,2052.00
2018-02-02T11:12:54.395Z,2560.00
2018-02-02T11:13:54.312Z,1820.00
2018-02-02T11:14:54.230Z,1620.00
2018-02-02T11:15:54.147Z,1160.00
2018-02-02T11:16:54.115Z,1164.00
2018-02-02T11:17:53.983Z,1104.00
2018-02-02T11:18:53.900Z,1348.00
2018-02-02T11:19:53.833Z,1952.00
2018-02-02T11:20:53.735Z,1464.00
2018-02-02T11:21:53.652Z,1780.00
2018-02-02T11:22:53.570Z,2228.00
2018-02-02T11:23:53.490Z,2536.00
2018-02-02T11:24:53.405Z,3244.00
2018-02-02T11:25:53.323Z,4428.00
2018-02-02T11:26:53.240Z,4572.00
2018-02-02T11:27:53.157Z,4016.00
2018-02-02T11:28:53.076Z,4572.00
2018-02-02T11:29:52.993Z,4632.00
2018-02-02T11:30:52.910Z,3844.00
2018-02-02T11:31:52.827Z,3668.00
2018-02-02T11:32:52.747Z,3532.00
2018-02-02T11:33:52.665Z,3848.00
2018-02-02T11:34:52.583Z,2872.00
2018-02-02T11:35:52.500Z,2564.00
2018-02-02T11:36:52.418Z,1808.00
2018-02-02T11:37:52.336Z,1772.00
2018-02-02T11:38:52.277Z,1952.00
2018-02-02T11:39:52.172Z,2076.00
2018-02-02T11:40:52.090Z,3036.00
2018-02-02T11:41:52.008Z,3108.00
2018-02-02T11:42:51.926Z,3796.00
2018-02-02T11:43:51.843Z,4056.00
2018-02-02T11:44:51.761Z,6800.00
2018-02-02T11:45:51.680Z,9544.00
2018-02-02T11:46:51.597Z,9956.00
2018-02-02T11:47:51.516Z,11200.00
2018-02-02T11:48:51.434Z,12744.00
2018-02-02T11:49:51.353Z,10248.00
2018-02-02T11:50:51.271Z,12896.00
2018-02-02T11:51:51.188Z,13156.00
2018-02-02T11:52:51.108Z,14864.00
2018-02-02T11:53:51.027Z,9828.00
2018-02-02T11:54:50.946Z,8336.00
2018-02-02T11:55:50.864Z,7800.00
2018-02-02T11:56:50.783Z,7364.00
2018-02-02T11:57:50.704Z,6860.00
2018-02-02T11:58:50.622Z,5548.00
2018-02-02T11:59:50.541Z,7468.00
2018-02-02T12:00:50.460Z,7496.00
2018-02-02T12:01:50.380Z,7276.00
2018-02-02T12:02:50.299Z,6484.00
2018-02-02T12:03:50.218Z,5768.00
2018-02-02T12:04:50.136Z,5136.00
2018-02-02T12:05:50.057Z,5520.00
2018-02-02T12:06:49.976Z,4916.00
2018-02-02T12:07:49.894Z,4376.00
2018-02-02T12:08:49.815Z,3764.00
2018-02-02T12:09:49.734Z,2372.00
2018-02-02T12:10:49.652Z,1608.00
2018-02-02T12:11:49.571Z,1504.00
2018-02-02T12:12:49.491Z,1708.00
2018-02-02T12:13:49.410Z,1716.00
2018-02-02T12:14:49.330Z,1344.00
2018-02-02T12:15:49.248Z,916.00
2018-02-02T12:16:49.167Z,1040.00
2018-02-02T12:17:49.086Z,1028.00
2018-02-02T12:18:49.005Z,904.00
2018-02-02T12:19:48.926Z,992.00
2018-02-02T12:20:48.841Z,1204.00
2018-02-02T12:21:48.762Z,1188.00
2018-02-02T12:22:48.678Z,1348.00
2018-02-02T12:23:48.595Z,1532.00
2018-02-02T12:24:48.515Z,2140.00
2018-02-02T12:25:48.433Z,1956.00
2018-02-02T12:26:48.351Z,1980.00
2018-02-02T12:27:48.268Z,2480.00
2018-02-02T12:28:48.188Z,2768.00
2018-02-02T12:29:48.105Z,3428.00
2018-02-02T12:30:48.023Z,2892.00
2018-02-02T12:31:47.940Z,2988.00
2018-02-02T12:32:47.859Z,2472.00
2018-02-02T12:33:47.777Z,1872.00
2018-02-02T12:34:47.695Z,2280.00
2018-02-02T12:35:47.612Z,2280.00
2018-02-02T12:36:47.530Z,2544.00
2018-02-02T12:37:47.448Z,2520.00
2018-02-02T12:38:47.367Z,2536.00
2018-02-02T12:39:47.284Z,2748.00
2018-02-02T12:40:47.204Z,3292.00
2018-02-02T12:41:47.120Z,3392.00
2018-02-02T12:42:47.038Z,3248.00
2018-02-02T12:43:46.954Z,3268.00
2018-02-02T12:44:46.872Z,3644.00
2018-02-02T12:45:46.791Z,3540.00
2018-02-02T12:46:46.709Z,3408.00
2018-02-02T12:47:46.626Z,2992.00
2018-02-02T12:48:46.544Z,2740.00
2018-02-02T12:49:46.463Z,2548.00
2018-02-02T12:50:46.381Z,2808.00
2018-02-02T12:51:46.298Z,2836.00
2018-02-02T12:52:46.216Z,2928.00
2018-02-02T12:53:46.134Z,2536.00
2018-02-02T12:54:46.054Z,2488.00
2018-02-02T12:55:45.970Z,2716.00
2018-02-02T12:56:45.891Z,2488.00
2018-02-02T12:57:45.806Z,2708.00
2018-02-02T12:58:45.723Z,2508.00
2018-02-02T12:59:45.642Z,2532.00